NCAR-RAP Real-Time Weather Data

Output produced by METARs form (19 June 2019  11:43 UTC)
found at http://weather.rap.ucar.edu/surface/
 
KCNK 191055Z AUTO 02004KT 10SM OVC007 18/17 A2983 RMK AO2 CIG 005V011 SLP092 T01830167
KCNK 191047Z AUTO 01004KT 10SM BKN007 OVC010 18/17 A2983 RMK AO2 CIG 005V008 T01830167
KCNK 190955Z AUTO 02005KT 10SM OVC005 18/17 A2981 RMK AO2 SLP085 T01830167
KCNK 190855Z AUTO 02006KT 10SM BKN005 OVC019 18/17 A2981 RMK AO2 SLP085 T01830172 55010
KCNK 190843Z AUTO 04005KT 10SM BKN005 OVC017 18/17 A2982 RMK AO2 T01830172
KCNK 190808Z AUTO 03007KT 10SM OVC004 18/17 A2981 RMK AO2 T01830172
KCNK 190755Z AUTO 02009KT 10SM OVC006 18/17 A2980 RMK AO2 CIG 004V009 SLP082 T01830172
KCNK 190721Z AUTO 02006KT 10SM OVC006 19/17 A2983 RMK AO2 CIG 005V009 T01890172
KCNK 190655Z AUTO 35004KT 10SM OVC008 19/17 A2985 RMK AO2 CIG 005V009 SLP098 T01890172
KCNK 190555Z AUTO 03007KT 10SM OVC007 19/17 A2984 RMK AO2 SLP095 60001 T01890172 10200 20183 402220183 58007
KCNK 190513Z AUTO 02005KT 10SM OVC009 19/17 A2987 RMK AO2 T01890172
KCNK 190502Z AUTO 01005KT 10SM OVC010 19/17 A2987 RMK AO2 CIG 005V012 T01890172
KCNK 190455Z AUTO 01006KT 10SM BKN008 OVC012 19/18 A2987 RMK AO2 CIG 005V010 SLP103 T01890178
KCNK 190446Z AUTO 36004KT 10SM BKN008 OVC011 19/18 A2987 RMK AO2 CIG 004V010 T01890178
KCNK 190434Z AUTO 36003KT 10SM SCT006 BKN013 18/17 A2987 RMK AO2 T01830172
KCNK 190407Z AUTO 03004KT 10SM SCT007 19/17 A2987 RMK AO2 T01890172
KCNK 190355Z AUTO 05006KT 10SM BKN007 19/18 A2987 RMK AO2 RAB01E12 CIG 004V011 SLP104 P0000 T01890178
KCNK 190310Z AUTO 06004KT 10SM -RA BKN008 OVC012 19/18 A2987 RMK AO2 RAB01 CIG 005V010 P0000 T01940178
KCNK 190255Z AUTO 06005KT 10SM OVC011 19/18 A2987 RMK AO2 RAB15E44 SLP102 P0001 60001 T01940178 57001
KCNK 190223Z AUTO 03004KT 10SM -RA OVC009 19/18 A2988 RMK AO2 RAB15 CIG 006V012 P0000 T01940178
KCNK 190155Z AUTO 04006KT 10SM BKN010 BKN014 OVC028 19/18 A2987 RMK AO2 RAB44E55 CIG 008V013 SLP105 P0000 T01940178
KCNK 190145Z AUTO 04006KT 10SM -RA SCT008 BKN012 OVC028 19/18 A2987 RMK AO2 RAB44 P0000 T01940178
KCNK 190130Z AUTO 07007KT 10SM FEW004 BKN028 OVC034 19/18 A2987 RMK AO2 T01940178
KCNK 190055Z AUTO 10SM FEW005 FEW020 OVC034 19/18 A2986 RMK AO2 RAB2358E48 SLP101 P0000 T01940178
KCNK 190043Z AUTO 05008KT 10SM -RA FEW005 SCT020 OVC030 19/18 A2986 RMK AO2 RAB2358 P0000 T01940178
KCNK 190015Z AUTO 10SM -RA FEW007 SCT023 OVC028 20/18 A2986 RMK AO2 RAB2358 P0000 T02000183
KCNK 182355Z AUTO 10SM FEW009 BKN013 OVC028 20/18 A2987 RMK AO2 RAB13E55 SLP103 P0000 60012 T02000178 10217 20194 56004
KCNK 182352Z AUTO 10SM -RA FEW009 BKN013 OVC028 20/18 A2987 RMK AO2 RAB13 P0000
KCNK 182255Z AUTO 10SM FEW009 BKN016 OVC024 20/17 A2987 RMK AO2 RAE01 SLP103 P0000 T02000172
KCNK 182240Z AUTO 10SM FEW009 OVC016 20/18 A2987 RMK AO2 RAE01 P0000 T02000178
KCNK 182229Z AUTO 10SM BKN016 BKN025 OVC030 21/18 A2987 RMK AO2 RAE01 P0000 T02060178
KCNK 182155Z AUTO 07006KT 10SM -RA BKN011 OVC030 20/18 A2988 RMK AO2 SLP108 P0001 T02000178
KCNK 182130Z AUTO 02005KT 10SM -RA BKN010 OVC031 20/18 A2989 RMK AO2 CIG 008V013 P0001 T02000178
KCNK 182123Z AUTO 02004KT 10SM -RA BKN009 OVC031 20/17 A2990 RMK AO2 CIG 008V013 P0000 T02000172
KCNK 182113Z AUTO 00000KT 10SM -RA SCT009 OVC031 20/18 A2990 RMK AO2 P0000 T02000178
KCNK 182055Z AUTO 14007KT 10SM -RA BKN032 OVC040 20/18 A2990 RMK AO2 SLP113 P0003 60011 T02000178 58010
KCNK 182047Z AUTO 12006G15KT 10SM -RA SCT029 BKN036 OVC044 20/18 A2990 RMK AO2 P0003 T02000183
KCNK 181955Z AUTO 09007KT 10SM -RA FEW010 OVC017 20/18 A2991 RMK AO2 SLP117 P0008 T02000183
KCNK 181944Z AUTO 10SM -RA SCT007 OVC015 20/18 A2991 RMK AO2 P0007 T02000183
KCNK 181927Z AUTO 10SM -RA OVC007 21/19 A2991 RMK AO2 CIG 003V011 P0006 T02060189
KCNK 181855Z AUTO 10SM -RA OVC006 21/19 A2992 RMK AO2 RAE27B39 CIG 004V009 SLP121 P0000 T02110194
KCNK 181831Z AUTO 01004KT 10SM BKN006 BKN011 OVC016 21/19 A2993 RMK AO2 LTG DSNT NE-SE RAE27 CIG 004V009 P0000 T02110194
KCNK 181816Z AUTO 06005KT 10SM VCTS -RA SCT005 BKN013 OVC070 21/20 A2993 RMK AO2 LTG DSNT NE AND E P0000 T02110200
KCNK 181803Z AUTO 02003KT 10SM -RA SCT007 BKN020 OVC070 21/19 A2993 RMK AO2 LTG DSNT NE AND E P0000 T02110194
KCNK 181755Z AUTO 36005KT 10SM -RA FEW014 SCT021 OVC070 21/19 A2993 RMK AO2 LTG DSNT NE AND E SLP123 P0005 60048 T02110194 10222 20194 58004
KCNK 181721Z AUTO 02004KT 10SM -RA OVC060 21/19 A2994 RMK AO2 LTG DSNT NE AND E P0004 T02110194
KCNK 181655Z AUTO 29004KT 10SM VCTS RA FEW014 BKN046 OVC070 21/19 A2994 RMK AO2 LTG DSNT N RAB06 TSB00E15 SLP126 P0042 T02110194
KCNK 181635Z AUTO 27005KT 10SM -RA SCT012 BKN038 OVC060 21/19 A2994 RMK AO2 LTG DSNT NW RAB06 TSB00E15 P0036 T02110194
KCNK 181619Z AUTO 29004KT 10SM RA BKN010 BKN018 OVC030 21/19 A2995 RMK AO2 RAB06 TSB00E15 P0023 T02110194
KCNK 181606Z AUTO 24007KT 10SM -TSRA BKN010 OVC070 22/19 A2995 RMK AO2 RAB06 TSB00 P0000 T02170194
KCNK 181555Z AUTO 00000KT 10SM SCT010 BKN070 BKN090 22/19 A2994 RMK AO2 RAE17 SLP124 P0001 T02220194